aviador You're here:

LFMU Decoded Metar

BEZIERS in FRANCE
Report Time2018-06-23 10:00:00
UTC Time2018-06-23 10:23:02
Flight Rules vfr VFR
Wind030° at 05 kt
W.Decomp.*RWY 09: 2.4 kt HW 4.4 kt LCW
W.Rank030° ranks 12
Current wind is below 030° avg. (5.7)
Visibility9999 m
Phenomena:N/A
Clouds:N/A
Expected CloudBase > 8,800 ft AGL from Temp-Dew spread
CeilingNone
Temp26°C (ISA +11)
Dew Point04°C (24% RH)
AAT22.9°C
QNH1019 hPa
Density Alt1,253 ft
Elevation56 ft
Report Wrong Elevation
Raw Report
LFMU 231000Z AUTO 03005KT 310V030 CAVOK 26/04 Q1019 BECMG
16012KT=

Extra information for LFMU:More info

Metar Taf Metar & Taf Last 4 Metars F.Rules Stats Wind Profile Meteogram Temp Stats Airport Information Weather charts Add Link Nearby VenuesMetar ALERT Operation Metar Decoded Social comments